DAL1426 KSLC-KLAX
Flight info
| Callsign | DAL1426 |
|---|---|
| Flight time | N/A |
| Altitude | 34000 |
| Route | ARCHZ1 WINEN LAKRR Q73 HAKMN ANJLL4 |
| Aircraft | B739/M-SDE2E3FGHIRWXY/LB1 |
Departure
| Time | 2026-05-06 20:15 |
|---|---|
| Airport | Salt Lake City International Airport (KSLC) |
Arrival
| Time | N/A |
|---|---|
| Airport | Los Angeles International Airport (KLAX) |
| Time | Latitude | Longitude | Altitude | Speed | Heading |
|---|---|---|---|---|---|
| 2026-05-06 19:47 | 40.78618 | -111.98717 | 4230 ft | 0 kts | 175° |
| 2026-05-06 20:01 | 40.78629 | -111.98718 | 4229 ft | 4 kts | 175° |
| 2026-05-06 20:02 | 40.78656 | -111.98721 | 4230 ft | 3 kts | 175° |
| 2026-05-06 20:02 | 40.78678 | -111.98727 | 4229 ft | 4 kts | 139° |
| 2026-05-06 20:02 | 40.78688 | -111.98754 | 4229 ft | 4 kts | 88° |
| 2026-05-06 20:02 | 40.78687 | -111.98773 | 4230 ft | 1 kts | 85° |
| 2026-05-06 20:03 | 40.78687 | -111.98775 | 4230 ft | 0 kts | 85° |
| 2026-05-06 20:09 | 40.78687 | -111.98767 | 4230 ft | 2 kts | 84° |
| 2026-05-06 20:09 | 40.78690 | -111.98731 | 4230 ft | 6 kts | 84° |
| 2026-05-06 20:09 | 40.78696 | -111.98665 | 4230 ft | 9 kts | 82° |
| 2026-05-06 20:09 | 40.78707 | -111.98573 | 4230 ft | 11 kts | 81° |
| 2026-05-06 20:10 | 40.78714 | -111.98488 | 4230 ft | 10 kts | 84° |
| 2026-05-06 20:10 | 40.78716 | -111.98382 | 4230 ft | 13 kts | 93° |
| 2026-05-06 20:10 | 40.78721 | -111.98254 | 4230 ft | 15 kts | 85° |
| 2026-05-06 20:10 | 40.78732 | -111.98105 | 4230 ft | 17 kts | 82° |
| 2026-05-06 20:11 | 40.78743 | -111.97935 | 4230 ft | 20 kts | 88° |
| 2026-05-06 20:11 | 40.78755 | -111.97747 | 4230 ft | 21 kts | 88° |
| 2026-05-06 20:11 | 40.78667 | -111.97680 | 4230 ft | 17 kts | 173° |
| 2026-05-06 20:11 | 40.78542 | -111.97657 | 4230 ft | 19 kts | 177° |
| 2026-05-06 20:12 | 40.78400 | -111.97642 | 4229 ft | 21 kts | 174° |
| 2026-05-06 20:12 | 40.78247 | -111.97623 | 4229 ft | 23 kts | 175° |
| 2026-05-06 20:12 | 40.78085 | -111.97605 | 4233 ft | 24 kts | 174° |
| 2026-05-06 20:12 | 40.77924 | -111.97572 | 4265 ft | 17 kts | 159° |
| 2026-05-06 20:13 | 40.77804 | -111.97521 | 4264 ft | 19 kts | 172° |
| 2026-05-06 20:13 | 40.77668 | -111.97508 | 4265 ft | 20 kts | 180° |
| 2026-05-06 20:13 | 40.77533 | -111.97494 | 4265 ft | 17 kts | 169° |
| 2026-05-06 20:13 | 40.77459 | -111.97400 | 4264 ft | 19 kts | 66° |
| 2026-05-06 20:14 | 40.77570 | -111.97326 | 4263 ft | 20 kts | 0° |
| 2026-05-06 20:14 | 40.77851 | -111.97361 | 4263 ft | 72 kts | 355° |
| 2026-05-06 20:14 | 40.78562 | -111.97444 | 4229 ft | 131 kts | 355° |
| 2026-05-06 20:14 | 40.79628 | -111.97610 | 4271 ft | 172 kts | 349° |
| 2026-05-06 20:15 | 40.80854 | -111.97806 | 4842 ft | 181 kts | 346° |
| 2026-05-06 20:15 | 40.82059 | -111.98491 | 5168 ft | 202 kts | 311° |
| 2026-05-06 20:15 | 40.82709 | -112.00145 | 5745 ft | 212 kts | 275° |
| 2026-05-06 20:15 | 40.82453 | -112.02154 | 6049 ft | 236 kts | 252° |
| 2026-05-06 20:16 | 40.81848 | -112.04242 | 6319 ft | 247 kts | 251° |
| 2026-05-06 20:16 | 40.81231 | -112.06379 | 6643 ft | 253 kts | 253° |
| 2026-05-06 20:16 | 40.80604 | -112.08566 | 7083 ft | 255 kts | 251° |
| 2026-05-06 20:16 | 40.79972 | -112.10797 | 7247 ft | 270 kts | 252° |
| 2026-05-06 20:17 | 40.79307 | -112.13166 | 7560 ft | 279 kts | 254° |
| 2026-05-06 20:17 | 40.78628 | -112.15603 | 8004 ft | 287 kts | 255° |
| 2026-05-06 20:17 | 40.77938 | -112.18096 | 8580 ft | 289 kts | 253° |
| 2026-05-06 20:17 | 40.77245 | -112.20598 | 9160 ft | 293 kts | 255° |
| 2026-05-06 20:18 | 40.76539 | -112.23146 | 9676 ft | 299 kts | 255° |
| 2026-05-06 20:18 | 40.75640 | -112.25649 | 10175 ft | 311 kts | 236° |
| 2026-05-06 20:18 | 40.73935 | -112.27522 | 10340 ft | 333 kts | 205° |
| 2026-05-06 20:18 | 40.71642 | -112.28293 | 10538 ft | 349 kts | 188° |
| 2026-05-06 20:19 | 40.69182 | -112.28735 | 10759 ft | 363 kts | 187° |
| 2026-05-06 20:19 | 40.66645 | -112.29170 | 11129 ft | 371 kts | 187° |
| 2026-05-06 20:19 | 40.64068 | -112.29642 | 11627 ft | 375 kts | 188° |
| 2026-05-06 20:19 | 40.61472 | -112.30152 | 12155 ft | 379 kts | 188° |
| 2026-05-06 20:20 | 40.58846 | -112.30683 | 12654 ft | 384 kts | 188° |
| 2026-05-06 20:20 | 40.56227 | -112.31247 | 13189 ft | 388 kts | 192° |
| 2026-05-06 20:20 | 40.53603 | -112.32167 | 13708 ft | 393 kts | 197° |
| 2026-05-06 20:20 | 40.50986 | -112.33260 | 14203 ft | 397 kts | 199° |
| 2026-05-06 20:21 | 40.48378 | -112.34380 | 14719 ft | 400 kts | 199° |
| 2026-05-06 20:21 | 40.45728 | -112.35512 | 15296 ft | 402 kts | 199° |
| 2026-05-06 20:21 | 40.43053 | -112.36636 | 15832 ft | 405 kts | 199° |
| 2026-05-06 20:21 | 40.40352 | -112.37755 | 16359 ft | 408 kts | 199° |
| 2026-05-06 20:22 | 40.37636 | -112.38869 | 16865 ft | 411 kts | 199° |
| 2026-05-06 20:22 | 40.34894 | -112.39988 | 17353 ft | 415 kts | 199° |
| 2026-05-06 20:22 | 40.32128 | -112.41113 | 17874 ft | 417 kts | 199° |
| 2026-05-06 20:22 | 40.29378 | -112.42232 | 18382 ft | 420 kts | 199° |
| 2026-05-06 20:23 | 40.26569 | -112.43373 | 18805 ft | 423 kts | 199° |
| 2026-05-06 20:23 | 40.23741 | -112.44522 | 19212 ft | 427 kts | 199° |
| 2026-05-06 20:23 | 40.20886 | -112.45681 | 19619 ft | 431 kts | 199° |
| 2026-05-06 20:23 | 40.18028 | -112.46915 | 20019 ft | 434 kts | 204° |
| 2026-05-06 20:24 | 40.15308 | -112.48618 | 20421 ft | 435 kts | 211° |
| 2026-05-06 20:24 | 40.12644 | -112.50520 | 20817 ft | 438 kts | 212° |
| 2026-05-06 20:24 | 40.09964 | -112.52471 | 21193 ft | 442 kts | 212° |
| 2026-05-06 20:24 | 40.07266 | -112.54429 | 21602 ft | 445 kts | 212° |
| 2026-05-06 20:25 | 40.04540 | -112.56385 | 22019 ft | 449 kts | 211° |
| 2026-05-06 20:25 | 40.01783 | -112.58342 | 22408 ft | 453 kts | 211° |
| 2026-05-06 20:25 | 39.98993 | -112.60309 | 22788 ft | 456 kts | 211° |
| 2026-05-06 20:25 | 39.96190 | -112.62274 | 23173 ft | 460 kts | 211° |
| 2026-05-06 20:26 | 39.93387 | -112.64235 | 23515 ft | 464 kts | 211° |
| 2026-05-06 20:26 | 39.90530 | -112.66229 | 23861 ft | 467 kts | 211° |
| 2026-05-06 20:26 | 39.87668 | -112.68234 | 24260 ft | 467 kts | 211° |
| 2026-05-06 20:26 | 39.84800 | -112.70237 | 24599 ft | 469 kts | 211° |
| 2026-05-06 20:27 | 39.81903 | -112.72255 | 24921 ft | 471 kts | 211° |
| 2026-05-06 20:27 | 39.79004 | -112.74273 | 25252 ft | 474 kts | 211° |
| 2026-05-06 20:27 | 39.76123 | -112.76278 | 25581 ft | 476 kts | 211° |
| 2026-05-06 20:27 | 39.73198 | -112.78314 | 25888 ft | 478 kts | 211° |
| 2026-05-06 20:28 | 39.70227 | -112.80378 | 26215 ft | 480 kts | 211° |
| 2026-05-06 20:28 | 39.67260 | -112.82291 | 26507 ft | 484 kts | 204° |
| 2026-05-06 20:28 | 39.64079 | -112.83733 | 26834 ft | 486 kts | 198° |
| 2026-05-06 20:28 | 39.60832 | -112.85005 | 27170 ft | 488 kts | 197° |
| 2026-05-06 20:29 | 39.57559 | -112.86241 | 27473 ft | 491 kts | 197° |
| 2026-05-06 20:29 | 39.54272 | -112.87481 | 27762 ft | 493 kts | 197° |
| 2026-05-06 20:29 | 39.52086 | -112.88315 | 27953 ft | 495 kts | 197° |
| 2026-05-06 20:29 | 39.48782 | -112.89592 | 28254 ft | 496 kts | 198° |
| 2026-05-06 20:30 | 39.45469 | -112.90889 | 28565 ft | 498 kts | 198° |
| 2026-05-06 20:30 | 39.38804 | -112.93528 | 29121 ft | 502 kts | 198° |
| 2026-05-06 20:30 | 39.35457 | -112.94857 | 29404 ft | 504 kts | 198° |
| 2026-05-06 20:31 | 39.32090 | -112.96194 | 29660 ft | 506 kts | 198° |
| 2026-05-06 20:31 | 39.28714 | -112.97531 | 29938 ft | 508 kts | 198° |
| 2026-05-06 20:31 | 39.25337 | -112.98867 | 30275 ft | 508 kts | 198° |
| 2026-05-06 20:31 | 39.21981 | -113.00191 | 30622 ft | 506 kts | 198° |
| 2026-05-06 20:32 | 39.17537 | -113.01942 | 31056 ft | 504 kts | 198° |
| 2026-05-06 20:32 | 39.15314 | -113.02818 | 31236 ft | 504 kts | 198° |
| 2026-05-06 20:32 | 39.11951 | -113.04140 | 31490 ft | 504 kts | 198° |
| 2026-05-06 20:32 | 39.08595 | -113.05459 | 31779 ft | 504 kts | 198° |
| 2026-05-06 20:33 | 39.05244 | -113.06775 | 32072 ft | 503 kts | 198° |
| 2026-05-06 20:33 | 39.01891 | -113.08090 | 32352 ft | 502 kts | 198° |
| 2026-05-06 20:33 | 38.98549 | -113.09400 | 32606 ft | 502 kts | 198° |
| 2026-05-06 20:33 | 38.95207 | -113.10708 | 32830 ft | 502 kts | 197° |
| 2026-05-06 20:34 | 38.91869 | -113.12013 | 33126 ft | 500 kts | 198° |
| 2026-05-06 20:34 | 38.88544 | -113.13313 | 33432 ft | 499 kts | 198° |
| 2026-05-06 20:34 | 38.85219 | -113.14610 | 33686 ft | 498 kts | 198° |
| 2026-05-06 20:34 | 38.81907 | -113.15902 | 33889 ft | 499 kts | 198° |
| 2026-05-06 20:35 | 38.78586 | -113.17196 | 34056 ft | 499 kts | 197° |
| 2026-05-06 20:35 | 38.71969 | -113.19770 | 34073 ft | 498 kts | 197° |
| 2026-05-06 20:36 | 38.65338 | -113.22344 | 34105 ft | 497 kts | 197° |
| 2026-05-06 20:36 | 38.58715 | -113.24910 | 34120 ft | 497 kts | 197° |
| 2026-05-06 20:37 | 38.52089 | -113.27473 | 34117 ft | 496 kts | 197° |
| 2026-05-06 20:37 | 38.45521 | -113.30009 | 34118 ft | 495 kts | 197° |
| 2026-05-06 20:38 | 38.38922 | -113.32551 | 34111 ft | 495 kts | 197° |
| 2026-05-06 20:38 | 38.32320 | -113.35090 | 34099 ft | 495 kts | 197° |
| 2026-05-06 20:39 | 38.25708 | -113.37628 | 34057 ft | 496 kts | 197° |
| 2026-05-06 20:39 | 38.19092 | -113.40162 | 34053 ft | 496 kts | 197° |
| 2026-05-06 20:40 | 38.12473 | -113.42694 | 34033 ft | 497 kts | 197° |
| 2026-05-06 20:40 | 38.05843 | -113.45224 | 34023 ft | 497 kts | 197° |
| 2026-05-06 20:41 | 37.99247 | -113.47737 | 34015 ft | 497 kts | 197° |
| 2026-05-06 20:41 | 37.92612 | -113.50262 | 34023 ft | 497 kts | 197° |
| 2026-05-06 20:42 | 37.86043 | -113.53027 | 34013 ft | 498 kts | 199° |
| 2026-05-06 20:42 | 37.79512 | -113.55950 | 34014 ft | 498 kts | 200° |
| 2026-05-06 20:43 | 37.72967 | -113.58839 | 34020 ft | 498 kts | 199° |
| 2026-05-06 20:43 | 37.66459 | -113.61671 | 34014 ft | 498 kts | 199° |
| 2026-05-06 20:44 | 37.59885 | -113.64514 | 34014 ft | 498 kts | 199° |
| 2026-05-06 20:44 | 37.53313 | -113.67350 | 34012 ft | 499 kts | 198° |
| 2026-05-06 20:45 | 37.46743 | -113.70181 | 33993 ft | 499 kts | 198° |
| 2026-05-06 20:45 | 37.40204 | -113.72996 | 33996 ft | 499 kts | 198° |
| 2026-05-06 20:46 | 37.33642 | -113.75814 | 33961 ft | 497 kts | 198° |
| 2026-05-06 20:46 | 37.27105 | -113.78616 | 33964 ft | 495 kts | 198° |
| 2026-05-06 20:47 | 37.20585 | -113.81407 | 33982 ft | 494 kts | 198° |
| 2026-05-06 20:47 | 37.14083 | -113.84184 | 33981 ft | 493 kts | 198° |
| 2026-05-06 20:48 | 37.07585 | -113.86955 | 33981 ft | 492 kts | 198° |
| 2026-05-06 20:48 | 37.01098 | -113.89717 | 33977 ft | 492 kts | 198° |
| 2026-05-06 20:49 | 36.94597 | -113.92478 | 33973 ft | 493 kts | 198° |
| 2026-05-06 20:49 | 36.88131 | -113.95220 | 33970 ft | 495 kts | 198° |
| 2026-05-06 20:50 | 36.81594 | -113.97988 | 33968 ft | 497 kts | 198° |
| 2026-05-06 20:50 | 36.75035 | -114.00759 | 33964 ft | 499 kts | 198° |
| 2026-05-06 20:51 | 36.68430 | -114.03545 | 33962 ft | 501 kts | 198° |
| 2026-05-06 20:51 | 36.61802 | -114.06336 | 33945 ft | 504 kts | 198° |
| 2026-05-06 20:52 | 36.55161 | -114.09119 | 33944 ft | 503 kts | 197° |
| 2026-05-06 20:52 | 36.48535 | -114.11909 | 33941 ft | 502 kts | 197° |
| 2026-05-06 20:53 | 36.41954 | -114.14665 | 33946 ft | 502 kts | 197° |
| 2026-05-06 20:53 | 36.35334 | -114.17431 | 33949 ft | 501 kts | 197° |
| 2026-05-06 20:54 | 36.28731 | -114.20186 | 33944 ft | 501 kts | 197° |
| 2026-05-06 20:54 | 36.22130 | -114.22936 | 33945 ft | 499 kts | 197° |
| 2026-05-06 20:55 | 36.15544 | -114.25676 | 33952 ft | 498 kts | 197° |
| 2026-05-06 20:55 | 36.09256 | -114.29099 | 33952 ft | 498 kts | 213° |
| 2026-05-06 20:56 | 36.03973 | -114.34597 | 33943 ft | 495 kts | 230° |
| 2026-05-06 20:56 | 35.99448 | -114.40995 | 33932 ft | 495 kts | 231° |
| 2026-05-06 20:57 | 35.94913 | -114.47406 | 33960 ft | 495 kts | 230° |
| 2026-05-06 20:57 | 35.90333 | -114.53768 | 33974 ft | 496 kts | 230° |
| 2026-05-06 20:58 | 35.85743 | -114.60091 | 33934 ft | 497 kts | 230° |
| 2026-05-06 20:58 | 35.81116 | -114.66454 | 34003 ft | 498 kts | 230° |
| 2026-05-06 20:59 | 35.76477 | -114.72829 | 33998 ft | 499 kts | 229° |
| 2026-05-06 20:59 | 35.71823 | -114.79210 | 34031 ft | 500 kts | 229° |
| 2026-05-06 21:00 | 35.67197 | -114.85544 | 34029 ft | 501 kts | 229° |
| 2026-05-06 21:00 | 35.62530 | -114.91937 | 34034 ft | 502 kts | 229° |
| 2026-05-06 21:01 | 35.57871 | -114.98325 | 34031 ft | 502 kts | 229° |
| 2026-05-06 21:01 | 35.53210 | -115.04705 | 34019 ft | 501 kts | 229° |
| 2026-05-06 21:02 | 35.52305 | -115.05942 | 34021 ft | 501 kts | 229° |